Time;durP1;ratioP1;P1;durP2;ratioP2;P2;SDS_P1;SDS_P2;PMS_P1;PMS_P2;Temp;Humidity;BMP_temperature;BMP_pressure;BME280_temperature;BME280_humidity;BME280_pressure;Samples;Min_cycle;Max_cycle;Signal;HPM_P1;HPM_P2
2022/06/01 00:00:22;;;;;;;29.40;18.30;;;;;;;;;;5000670;28;20052;-68
2022/06/01 00:02:47;;;;;;;41.10;19.23;;;;;;;;;;5002513;28;20026;-69
2022/06/01 00:05:12;;;;;;;29.83;18.42;;;;;;;;;;4998804;28;20279;-68
2022/06/01 00:07:37;;;;;;;28.38;18.33;;;;;;;;;;4998540;28;20160;-68
2022/06/01 00:10:03;;;;;;;29.35;18.30;;;;;;;;;;5000279;28;20033;-68
2022/06/01 00:12:29;;;;;;;36.67;20.48;;;;;;;;;;4999705;28;20046;-68
2022/06/01 00:14:54;;;;;;;29.77;19.45;;;;;;;;;;5010233;28;20022;-68
2022/06/01 00:17:21;;;;;;;35.03;21.85;;;;;;;;;;5002453;28;20025;-69
2022/06/01 00:19:46;;;;;;;33.83;21.45;;;;;;;;;;5010654;28;20029;-68
2022/06/01 00:22:11;;;;;;;35.03;20.75;;;;;;;;;;5001210;28;20037;-69
2022/06/01 00:24:38;;;;;;;31.07;20.07;;;;;;;;;;5008328;28;20044;-68
2022/06/01 00:27:04;;;;;;;36.38;20.60;;;;;;;;;;4998313;28;20264;-68
2022/06/01 00:29:29;;;;;;;37.28;21.52;;;;;;;;;;5005570;28;20028;-69
2022/06/01 00:31:54;;;;;;;35.27;20.30;;;;;;;;;;4997884;28;20033;-68
2022/06/01 00:34:19;;;;;;;33.27;20.23;;;;;;;;;;5003724;28;20757;-69
2022/06/01 00:36:44;;;;;;;32.83;20.00;;;;;;;;;;5002348;28;20259;-69
2022/06/01 00:39:10;;;;;;;36.85;20.98;;;;;;;;;;5003889;28;20575;-69
2022/06/01 00:41:35;;;;;;;34.20;20.10;;;;;;;;;;5001099;28;20112;-69
2022/06/01 00:44:00;;;;;;;35.60;22.33;;;;;;;;;;4998095;28;20295;-70
2022/06/01 00:46:25;;;;;;;39.90;23.07;;;;;;;;;;5000991;28;20282;-69
2022/06/01 00:48:52;;;;;;;40.63;23.95;;;;;;;;;;5002433;28;20282;-69
2022/06/01 00:51:19;;;;;;;35.50;20.52;;;;;;;;;;5008495;28;20372;-68
2022/06/01 00:53:45;;;;;;;37.25;21.38;;;;;;;;;;5004323;28;20634;-69
2022/06/01 00:56:21;;;;;;;38.63;21.95;;;;;;;;;;5003350;28;20067;-69
2022/06/01 00:58:49;;;;;;;34.90;21.55;;;;;;;;;;4999034;28;20029;-69
2022/06/01 01:01:16;;;;;;;38.65;22.75;;;;;;;;;;5004765;28;20014;-68
2022/06/01 01:03:43;;;;;;;45.05;24.67;;;;;;;;;;5000522;28;20022;-69
2022/06/01 01:06:11;;;;;;;40.78;24.38;;;;;;;;;;4999989;28;20053;-69
2022/06/01 01:08:37;;;;;;;38.00;23.05;;;;;;;;;;5001787;28;20038;-69
2022/06/01 01:11:02;;;;;;;43.05;23.50;;;;;;;;;;5010325;28;20033;-68
2022/06/01 01:13:28;;;;;;;40.40;23.30;;;;;;;;;;5003041;28;20084;-68
2022/06/01 01:15:55;;;;;;;38.75;22.88;;;;;;;;;;5000592;28;20266;-69
2022/06/01 01:18:28;;;;;;;40.35;23.00;;;;;;;;;;5006212;28;20030;-69
2022/06/01 01:21:07;;;;;;;38.88;22.88;;;;;;;;;;5008528;28;20021;-69
2022/06/01 01:23:51;;;;;;;40.10;22.23;;;;;;;;;;5000271;28;20041;-68
2022/06/01 01:26:17;;;;;;;38.50;22.17;;;;;;;;;;5012994;28;20033;-68
2022/06/01 01:28:42;;;;;;;38.42;20.67;;;;;;;;;;5008793;28;20026;-68
2022/06/01 01:31:16;;;;;;;36.58;22.20;;;;;;;;;;4981936;28;20029;-68
2022/06/01 01:33:42;;;;;;;35.65;21.98;;;;;;;;;;4998752;28;20029;-68
2022/06/01 01:36:08;;;;;;;39.43;22.67;;;;;;;;;;5005471;28;20040;-68
2022/06/01 01:38:42;;;;;;;40.92;22.92;;;;;;;;;;4999161;28;20761;-68
2022/06/01 01:41:18;;;;;;;35.83;21.90;;;;;;;;;;5001827;28;20021;-68
2022/06/01 01:43:49;;;;;;;38.28;22.65;;;;;;;;;;4994147;28;20030;-68
2022/06/01 01:46:14;;;;;;;42.05;23.27;;;;;;;;;;4998307;28;20018;-68
2022/06/01 01:48:40;;;;;;;40.78;22.30;;;;;;;;;;4997566;28;20025;-68
2022/06/01 01:51:05;;;;;;;36.20;22.13;;;;;;;;;;4999465;28;20126;-68
2022/06/01 01:53:32;;;;;;;37.47;22.50;;;;;;;;;;4998534;28;20026;-68
2022/06/01 01:56:09;;;;;;;39.78;23.83;;;;;;;;;;5001266;28;20026;-68
2022/06/01 01:58:41;;;;;;;37.75;23.13;;;;;;;;;;4999474;28;20496;-68
2022/06/01 02:01:11;;;;;;;36.85;23.05;;;;;;;;;;4995585;28;20045;-68
2022/06/01 02:03:47;;;;;;;40.88;22.42;;;;;;;;;;4996982;28;20030;-68
2022/06/01 02:06:25;;;;;;;36.72;22.17;;;;;;;;;;4997448;28;20423;-68
2022/06/01 02:08:54;;;;;;;36.75;20.88;;;;;;;;;;4996220;28;20076;-68
2022/06/01 02:14:16;;;;;;;38.33;22.55;;;;;;;;;;4997455;28;20144;-68
2022/06/01 02:16:44;;;;;;;41.20;23.20;;;;;;;;;;5007002;28;20076;-68
2022/06/01 02:19:12;;;;;;;40.25;23.10;;;;;;;;;;5010832;28;20029;-67
2022/06/01 02:21:37;;;;;;;45.65;24.30;;;;;;;;;;5017810;28;20032;-68
2022/06/01 02:24:02;;;;;;;38.63;23.17;;;;;;;;;;5015707;28;20025;-68
2022/06/01 02:26:28;;;;;;;37.22;23.02;;;;;;;;;;5006849;28;20095;-68
2022/06/01 02:28:56;;;;;;;40.20;23.02;;;;;;;;;;5011473;28;20060;-68
2022/06/01 02:31:22;;;;;;;41.42;22.98;;;;;;;;;;5011765;28;20026;-68
2022/06/01 02:33:48;;;;;;;42.13;23.70;;;;;;;;;;5005820;28;20048;-68
2022/06/01 02:36:16;;;;;;;40.92;24.38;;;;;;;;;;5006161;28;20469;-68
2022/06/01 02:38:43;;;;;;;37.97;23.48;;;;;;;;;;5003425;28;20018;-68
2022/06/01 02:42:25;;;;;;;39.33;23.08;;;;;;;;;;5006462;28;20519;-68
2022/06/01 02:43:53;;;;;;;39.97;23.48;;;;;;;;;;5005722;28;20076;-68
2022/06/01 02:46:18;;;;;;;42.77;24.43;;;;;;;;;;5010970;28;20026;-68
2022/06/01 02:48:45;;;;;;;42.63;24.33;;;;;;;;;;5014399;28;20840;-68
2022/06/01 02:51:11;;;;;;;39.08;24.15;;;;;;;;;;5002187;28;20326;-68
2022/06/01 02:53:37;;;;;;;42.08;25.05;;;;;;;;;;5006819;28;20112;-68
2022/06/01 02:56:03;;;;;;;45.17;25.88;;;;;;;;;;5006468;28;20022;-68
2022/06/01 02:58:28;;;;;;;43.95;24.70;;;;;;;;;;5007507;28;20479;-68
2022/06/01 03:00:53;;;;;;;41.55;24.40;;;;;;;;;;5006836;28;20025;-68
2022/06/01 03:03:18;;;;;;;41.13;23.13;;;;;;;;;;5006695;28;20648;-68
2022/06/01 03:05:43;;;;;;;41.42;24.33;;;;;;;;;;5011156;28;20286;-68
2022/06/01 03:08:09;;;;;;;45.03;23.95;;;;;;;;;;5004062;28;20049;-67
2022/06/01 03:10:34;;;;;;;39.08;23.95;;;;;;;;;;5004896;28;20034;-68
2022/06/01 03:12:59;;;;;;;35.17;22.27;;;;;;;;;;5007397;28;20395;-68
2022/06/01 03:15:25;;;;;;;40.30;23.13;;;;;;;;;;5006990;28;20411;-68
2022/06/01 03:17:50;;;;;;;37.55;22.40;;;;;;;;;;4999476;28;20268;-68
2022/06/01 03:20:18;;;;;;;38.83;23.60;;;;;;;;;;4999070;28;20140;-68
2022/06/01 03:22:43;;;;;;;34.63;21.00;;;;;;;;;;5000052;28;20044;-68
2022/06/01 03:25:13;;;;;;;41.17;23.00;;;;;;;;;;4998350;28;20034;-68
2022/06/01 03:27:38;;;;;;;39.90;23.27;;;;;;;;;;5000240;28;20034;-68
2022/06/01 03:30:06;;;;;;;40.85;23.83;;;;;;;;;;5001979;28;20472;-68
2022/06/01 03:32:31;;;;;;;37.97;22.58;;;;;;;;;;5002071;28;20030;-68
2022/06/01 03:34:56;;;;;;;35.13;21.45;;;;;;;;;;4982605;28;20033;-68
2022/06/01 03:37:21;;;;;;;35.00;21.92;;;;;;;;;;4984263;28;20930;-68
2022/06/01 03:39:46;;;;;;;35.58;21.30;;;;;;;;;;5000832;28;20347;-68
2022/06/01 03:42:12;;;;;;;41.88;23.75;;;;;;;;;;4985055;28;20274;-68
2022/06/01 03:47:20;;;;;;;42.00;23.73;;;;;;;;;;5001447;28;20672;-68
2022/06/01 03:49:46;;;;;;;43.90;24.00;;;;;;;;;;5000413;28;21600;-68
2022/06/01 03:52:11;;;;;;;49.38;26.67;;;;;;;;;;4998588;28;20275;-68
2022/06/01 03:54:37;;;;;;;53.25;27.70;;;;;;;;;;4998810;28;20037;-68
2022/06/01 03:57:03;;;;;;;59.53;29.98;;;;;;;;;;5000007;28;20018;-68
2022/06/01 03:59:28;;;;;;;57.80;28.20;;;;;;;;;;5000374;28;20125;-68
2022/06/01 04:01:53;;;;;;;52.35;27.15;;;;;;;;;;4998660;28;20030;-68
2022/06/01 04:04:19;;;;;;;54.90;28.70;;;;;;;;;;5001088;28;20056;-68
2022/06/01 04:06:44;;;;;;;59.65;28.23;;;;;;;;;;5002872;28;20406;-68
2022/06/01 04:09:09;;;;;;;59.13;28.13;;;;;;;;;;4999227;28;20770;-68
2022/06/01 04:11:34;;;;;;;62.33;30.98;;;;;;;;;;4996464;28;20018;-68
2022/06/01 04:14:00;;;;;;;68.55;32.60;;;;;;;;;;5004810;28;20022;-69
2022/06/01 04:16:25;;;;;;;71.65;35.03;;;;;;;;;;4999170;28;20037;-70
2022/06/01 04:18:50;;;;;;;64.40;31.02;;;;;;;;;;4998135;28;20394;-69
2022/06/01 04:21:18;;;;;;;70.78;32.70;;;;;;;;;;4999246;28;20052;-68
2022/06/01 04:23:43;;;;;;;62.03;29.45;;;;;;;;;;5002419;28;20061;-68
2022/06/01 04:26:09;;;;;;;68.05;30.05;;;;;;;;;;4998258;28;20447;-69
2022/06/01 04:28:34;;;;;;;62.93;30.10;;;;;;;;;;4996794;28;20495;-68
2022/06/01 04:30:59;;;;;;;57.05;26.42;;;;;;;;;;5000192;28;20282;-69
2022/06/01 04:33:26;;;;;;;59.25;27.27;;;;;;;;;;4997624;28;20686;-68
2022/06/01 04:35:51;;;;;;;56.28;26.08;;;;;;;;;;4999018;28;20096;-68
2022/06/01 04:38:18;;;;;;;55.00;26.13;;;;;;;;;;4999670;28;20362;-68
2022/06/01 04:40:45;;;;;;;55.28;25.98;;;;;;;;;;4998567;28;20275;-68
2022/06/01 04:43:11;;;;;;;56.25;26.20;;;;;;;;;;4999282;28;20037;-68
2022/06/01 04:45:36;;;;;;;53.72;25.50;;;;;;;;;;4999648;28;20030;-69
2022/06/01 04:48:01;;;;;;;42.77;23.03;;;;;;;;;;4998720;28;20056;-67
2022/06/01 04:50:26;;;;;;;47.35;23.13;;;;;;;;;;5001945;28;20271;-72
2022/06/01 04:52:53;;;;;;;63.67;28.35;;;;;;;;;;4983227;28;20037;-70
2022/06/01 04:55:18;;;;;;;55.90;26.87;;;;;;;;;;5003540;28;20036;-68
2022/06/01 04:57:43;;;;;;;46.03;23.03;;;;;;;;;;4997625;28;20329;-69
2022/06/01 05:00:08;;;;;;;55.08;27.70;;;;;;;;;;5000204;28;20263;-68
2022/06/01 05:02:34;;;;;;;49.10;23.95;;;;;;;;;;5000526;28;20025;-72
2022/06/01 05:04:59;;;;;;;51.88;23.60;;;;;;;;;;5010621;28;20045;-69
2022/06/01 05:07:24;;;;;;;50.77;23.03;;;;;;;;;;5006418;28;20026;-69
2022/06/01 05:09:49;;;;;;;46.78;23.77;;;;;;;;;;5004021;28;20750;-68
2022/06/01 05:12:14;;;;;;;48.65;22.70;;;;;;;;;;5002854;28;20339;-70
2022/06/01 05:14:40;;;;;;;47.58;24.08;;;;;;;;;;5013507;28;20376;-69
2022/06/01 05:17:05;;;;;;;41.87;21.57;;;;;;;;;;5013373;28;20018;-68
2022/06/01 05:19:32;;;;;;;38.30;20.67;;;;;;;;;;5013461;28;20374;-68
2022/06/01 05:21:58;;;;;;;44.78;23.02;;;;;;;;;;5001823;28;20029;-68
2022/06/01 05:24:23;;;;;;;46.20;21.73;;;;;;;;;;5014188;28;20017;-68
2022/06/01 05:26:48;;;;;;;43.33;22.13;;;;;;;;;;5012422;28;20030;-68
2022/06/01 05:29:14;;;;;;;43.72;23.05;;;;;;;;;;5011403;28;20030;-68
2022/06/01 05:31:39;;;;;;;43.38;22.85;;;;;;;;;;5006627;28;20187;-69
2022/06/01 05:34:04;;;;;;;43.67;22.63;;;;;;;;;;5011119;28;20271;-69
2022/06/01 05:36:29;;;;;;;45.72;23.33;;;;;;;;;;5006366;28;20890;-72
2022/06/01 05:38:54;;;;;;;50.38;25.35;;;;;;;;;;5002876;28;20033;-70
2022/06/01 05:41:20;;;;;;;47.70;24.67;;;;;;;;;;5006455;28;20025;-69
2022/06/01 05:43:47;;;;;;;41.57;22.07;;;;;;;;;;5014271;28;20429;-69
2022/06/01 05:46:12;;;;;;;41.63;22.92;;;;;;;;;;4994595;28;20354;-70
2022/06/01 05:48:37;;;;;;;48.07;24.80;;;;;;;;;;4999969;28;20449;-69
2022/06/01 05:51:02;;;;;;;51.33;29.67;;;;;;;;;;5003265;28;20330;-70
2022/06/01 05:53:28;;;;;;;40.25;20.27;;;;;;;;;;5013874;28;20271;-70
2022/06/01 05:55:53;;;;;;;46.45;22.27;;;;;;;;;;5009113;28;20021;-70
2022/06/01 05:58:19;;;;;;;41.27;23.27;;;;;;;;;;5009032;28;20038;-71
2022/06/01 06:00:45;;;;;;;44.05;23.33;;;;;;;;;;5003918;28;20380;-72
2022/06/01 06:03:10;;;;;;;40.42;23.60;;;;;;;;;;5007911;28;20034;-72
2022/06/01 06:08:20;;;;;;;36.75;20.67;;;;;;;;;;5003087;28;20551;-72
2022/06/01 06:10:45;;;;;;;38.75;19.55;;;;;;;;;;5005538;28;20069;-76
2022/06/01 06:13:10;;;;;;;37.50;21.87;;;;;;;;;;5008084;28;20052;-71
2022/06/01 06:15:35;;;;;;;39.53;19.80;;;;;;;;;;5004868;28;20316;-73
2022/06/01 06:18:00;;;;;;;40.43;20.03;;;;;;;;;;5012093;28;20025;-74
2022/06/01 06:20:25;;;;;;;38.50;20.17;;;;;;;;;;5004027;28;20342;-72
2022/06/01 06:22:51;;;;;;;34.73;18.93;;;;;;;;;;5019717;28;20052;-73
2022/06/01 06:25:16;;;;;;;33.93;19.40;;;;;;;;;;5020226;28;20274;-71
2022/06/01 06:27:41;;;;;;;35.75;18.50;;;;;;;;;;5005953;28;20264;-73
2022/06/01 06:30:07;;;;;;;32.97;17.23;;;;;;;;;;5001323;28;20064;-71
2022/06/01 06:32:32;;;;;;;33.05;18.98;;;;;;;;;;5004405;28;20291;-72
2022/06/01 06:34:57;;;;;;;28.60;16.03;;;;;;;;;;5003582;28;20461;-81
2022/06/01 06:37:22;;;;;;;31.23;16.27;;;;;;;;;;5015740;28;20277;-73
2022/06/01 06:39:47;;;;;;;31.77;16.73;;;;;;;;;;4997319;28;20646;-74
2022/06/01 06:42:13;;;;;;;25.97;15.57;;;;;;;;;;5005527;28;20277;-72
2022/06/01 06:44:38;;;;;;;33.63;15.60;;;;;;;;;;5008463;28;20271;-72
2022/06/01 06:47:04;;;;;;;25.10;14.70;;;;;;;;;;5008613;28;20030;-72
2022/06/01 06:49:29;;;;;;;33.72;14.85;;;;;;;;;;5006115;28;20030;-72
2022/06/01 06:51:54;;;;;;;26.43;14.60;;;;;;;;;;5011271;28;20516;-71
2022/06/01 06:54:19;;;;;;;25.42;14.43;;;;;;;;;;5012153;28;20029;-75
2022/06/01 06:56:44;;;;;;;23.77;14.50;;;;;;;;;;5012986;28;20459;-72
2022/06/01 06:59:12;;;;;;;26.87;14.13;;;;;;;;;;5012658;28;20297;-72
2022/06/01 07:01:37;;;;;;;30.38;14.23;;;;;;;;;;5009833;28;20026;-71
2022/06/01 07:04:02;;;;;;;21.70;14.23;;;;;;;;;;5020733;28;20074;-73
2022/06/01 07:06:29;;;;;;;24.05;14.13;;;;;;;;;;5010037;28;20036;-77
2022/06/01 07:08:55;;;;;;;20.90;13.77;;;;;;;;;;5002431;28;20037;-70
2022/06/01 07:11:21;;;;;;;24.08;13.55;;;;;;;;;;5012004;28;20025;-78
2022/06/01 07:13:48;;;;;;;23.30;12.50;;;;;;;;;;5018930;28;20489;-73
2022/06/01 07:16:14;;;;;;;21.17;14.45;;;;;;;;;;5012779;28;20093;-72
2022/06/01 07:18:41;;;;;;;15.98;10.15;;;;;;;;;;5008824;28;20031;-74
2022/06/01 07:21:06;;;;;;;15.38;9.95;;;;;;;;;;5015279;28;20017;-73
2022/06/01 07:23:32;;;;;;;19.55;10.85;;;;;;;;;;5004889;28;20045;-72
2022/06/01 07:25:57;;;;;;;19.88;11.32;;;;;;;;;;5011933;28;20035;-73
2022/06/01 07:28:23;;;;;;;16.45;10.82;;;;;;;;;;5013526;28;20026;-73
2022/06/01 07:30:56;;;;;;;16.33;10.35;;;;;;;;;;5003436;28;20833;-72
2022/06/01 07:33:21;;;;;;;16.45;10.15;;;;;;;;;;5004095;28;20021;-73
2022/06/01 07:35:47;;;;;;;16.30;11.60;;;;;;;;;;5011558;28;20101;-73
2022/06/01 07:43:40;;;;;;;17.30;10.77;;;;;;;;;;5006580;28;20316;-70
2022/06/01 07:46:05;;;;;;;17.90;10.50;;;;;;;;;;5006601;28;20457;-72
2022/06/01 07:48:31;;;;;;;14.63;9.65;;;;;;;;;;5009146;28;20411;-72
2022/06/01 07:50:56;;;;;;;16.83;8.37;;;;;;;;;;5002041;28;20022;-71
2022/06/01 07:53:21;;;;;;;14.60;8.90;;;;;;;;;;5006811;28;20982;-71
2022/06/01 07:55:46;;;;;;;15.83;9.57;;;;;;;;;;5009243;28;20358;-72
2022/06/01 07:58:11;;;;;;;12.67;9.53;;;;;;;;;;5005639;28;20313;-72
2022/06/01 08:00:37;;;;;;;13.87;8.73;;;;;;;;;;5006691;28;20034;-73
2022/06/01 08:03:03;;;;;;;16.15;9.25;;;;;;;;;;5004805;28;20034;-71
2022/06/01 08:05:29;;;;;;;12.95;9.02;;;;;;;;;;5010031;28;20544;-72
2022/06/01 08:07:54;;;;;;;12.82;9.38;;;;;;;;;;5012125;28;20030;-76
2022/06/01 08:10:20;;;;;;;13.70;9.32;;;;;;;;;;5008670;28;20029;-71
2022/06/01 08:15:29;;;;;;;9.68;7.57;;;;;;;;;;5012437;28;20029;-73
2022/06/01 08:17:55;;;;;;;12.80;7.88;;;;;;;;;;5012190;28;20609;-74
2022/06/01 08:20:21;;;;;;;8.75;7.25;;;;;;;;;;5017284;28;20022;-73
2022/06/01 08:22:46;;;;;;;13.90;8.10;;;;;;;;;;5019934;28;20064;-72
2022/06/01 08:25:13;;;;;;;10.45;8.02;;;;;;;;;;5013131;28;20033;-75
2022/06/01 08:27:38;;;;;;;10.48;6.80;;;;;;;;;;5010078;28;20029;-75
2022/06/01 08:30:04;;;;;;;9.30;7.18;;;;;;;;;;5007305;28;20025;-74
2022/06/01 08:32:29;;;;;;;10.57;7.85;;;;;;;;;;5020286;28;20481;-72
2022/06/01 08:34:55;;;;;;;10.18;7.78;;;;;;;;;;5005636;28;20084;-71
2022/06/01 08:37:20;;;;;;;10.30;6.40;;;;;;;;;;5014036;28;20554;-72
2022/06/01 08:39:45;;;;;;;8.95;7.47;;;;;;;;;;5000888;28;20040;-74
2022/06/01 08:42:12;;;;;;;8.97;7.17;;;;;;;;;;4993060;28;20048;-73
2022/06/01 08:44:40;;;;;;;9.65;6.00;;;;;;;;;;4997251;28;20030;-73
2022/06/01 08:47:07;;;;;;;8.35;6.68;;;;;;;;;;5004467;28;20049;-72
2022/06/01 08:49:33;;;;;;;11.05;7.35;;;;;;;;;;5006597;28;20030;-71
2022/06/01 08:51:59;;;;;;;9.90;6.65;;;;;;;;;;4990342;28;20125;-71
2022/06/01 08:54:24;;;;;;;8.00;6.55;;;;;;;;;;5016218;28;20136;-72
2022/06/01 08:56:54;;;;;;;6.63;5.57;;;;;;;;;;5006637;28;20030;-71
2022/06/01 08:59:23;;;;;;;7.97;5.70;;;;;;;;;;5004727;28;20092;-70
2022/06/01 09:02:06;;;;;;;7.57;5.88;;;;;;;;;;5020351;28;20341;-71
2022/06/01 09:04:37;;;;;;;11.32;6.35;;;;;;;;;;5016873;28;20022;-71
2022/06/01 09:07:21;;;;;;;7.35;5.63;;;;;;;;;;5018227;28;20033;-73
2022/06/01 09:10:00;;;;;;;9.55;5.88;;;;;;;;;;5015322;28;20018;-73
2022/06/01 09:12:26;;;;;;;8.10;5.88;;;;;;;;;;5022476;28;20120;-74
2022/06/01 09:14:53;;;;;;;10.20;5.60;;;;;;;;;;5019394;28;20395;-71
2022/06/01 09:17:18;;;;;;;7.38;5.75;;;;;;;;;;5007579;28;20031;-71
2022/06/01 09:22:37;;;;;;;6.32;5.72;;;;;;;;;;5023443;28;20264;-71
2022/06/01 09:25:13;;;;;;;6.75;5.30;;;;;;;;;;5016214;28;20037;-71
2022/06/01 09:27:40;;;;;;;6.32;4.95;;;;;;;;;;5007674;28;20025;-71
2022/06/01 09:30:21;;;;;;;5.07;4.63;;;;;;;;;;5016775;28;20064;-76
2022/06/01 09:33:04;;;;;;;5.82;4.15;;;;;;;;;;5006974;28;20026;-74
2022/06/01 09:35:33;;;;;;;6.35;4.95;;;;;;;;;;5007277;28;20057;-74
2022/06/01 09:38:01;;;;;;;7.60;5.30;;;;;;;;;;5021368;28;20014;-72
2022/06/01 09:40:32;;;;;;;5.65;4.30;;;;;;;;;;5018991;28;20037;-70
2022/06/01 09:43:00;;;;;;;9.20;4.68;;;;;;;;;;4989803;28;20404;-69
2022/06/01 09:45:32;;;;;;;9.43;5.38;;;;;;;;;;4999892;28;20223;-71
2022/06/01 09:48:15;;;;;;;6.38;5.07;;;;;;;;;;5008281;28;20025;-69
2022/06/01 09:50:43;;;;;;;10.57;5.45;;;;;;;;;;5004689;28;20395;-68
2022/06/01 09:53:10;;;;;;;8.23;6.20;;;;;;;;;;5007269;28;20033;-69
2022/06/01 09:55:48;;;;;;;13.80;7.13;;;;;;;;;;5001486;28;20468;-68
2022/06/01 10:06:05;;;;;;;14.48;7.28;;;;;;;;;;5002711;28;20334;-74
2022/06/01 10:06:36;;;;;;;9.63;7.90;;;;;;;;;;5003837;28;20037;-73
2022/06/01 10:09:11;;;;;;;13.00;7.82;;;;;;;;;;4992147;28;20542;-73
2022/06/01 10:11:40;;;;;;;10.13;7.80;;;;;;;;;;5013981;28;21079;-72
2022/06/01 10:14:19;;;;;;;10.48;8.00;;;;;;;;;;5003584;28;20227;-73
2022/06/01 10:16:51;;;;;;;11.48;8.32;;;;;;;;;;5004576;28;20053;-74
2022/06/01 10:19:20;;;;;;;10.43;8.15;;;;;;;;;;5004985;28;20014;-73
2022/06/01 10:22:04;;;;;;;14.27;8.48;;;;;;;;;;5010076;28;20492;-73
2022/06/01 10:24:36;;;;;;;15.52;9.23;;;;;;;;;;4990841;28;20469;-73
2022/06/01 10:27:01;;;;;;;15.30;9.02;;;;;;;;;;5010969;28;20392;-73
2022/06/01 10:29:34;;;;;;;11.85;8.90;;;;;;;;;;5009537;28;20018;-72
2022/06/01 10:32:30;;;;;;;17.35;10.98;;;;;;;;;;5013410;28;20426;-73
2022/06/01 10:35:00;;;;;;;14.80;11.27;;;;;;;;;;4995247;28;20045;-76
2022/06/01 10:37:33;;;;;;;15.02;11.05;;;;;;;;;;5006657;28;20013;-74
2022/06/01 10:40:06;;;;;;;11.98;9.95;;;;;;;;;;5004269;28;20105;-73
2022/06/01 10:45:33;;;;;;;15.85;11.90;;;;;;;;;;5010423;28;20036;-76
2022/06/01 10:48:04;;;;;;;14.38;9.98;;;;;;;;;;5006808;28;20072;-76
2022/06/01 10:50:32;;;;;;;11.55;9.10;;;;;;;;;;5005862;28;20317;-76
2022/06/01 10:53:18;;;;;;;6.95;6.32;;;;;;;;;;5006248;28;20022;-77
2022/06/01 10:55:44;;;;;;;8.35;6.40;;;;;;;;;;4974300;28;20065;-74
2022/06/01 10:58:12;;;;;;;7.80;7.00;;;;;;;;;;5014942;28;20018;-75
2022/06/01 11:00:44;;;;;;;8.10;5.72;;;;;;;;;;4988048;28;20408;-74
2022/06/01 11:03:18;;;;;;;9.00;5.93;;;;;;;;;;5006720;28;20140;-72
2022/06/01 11:05:43;;;;;;;;;;;;;;;;;;5000057;28;20026;-78
2022/06/01 11:08:08;;;;;;;6.70;6.05;;;;;;;;;;5007612;28;20361;-76
2022/06/01 11:10:40;;;;;;;8.52;5.57;;;;;;;;;;5005828;28;20030;-72
2022/06/01 11:13:24;;;;;;;7.45;5.80;;;;;;;;;;5008607;28;20353;-73
2022/06/01 11:15:56;;;;;;;6.30;5.45;;;;;;;;;;5011873;28;20368;-78
2022/06/01 11:18:25;;;;;;;6.45;5.80;;;;;;;;;;5006560;28;20061;-79
2022/06/01 11:21:08;;;;;;;6.55;5.70;;;;;;;;;;5007533;28;20242;-76
2022/06/01 11:23:44;;;;;;;7.70;6.97;;;;;;;;;;5007149;28;20065;-77
2022/06/01 11:26:22;;;;;;;8.10;7.28;;;;;;;;;;5009677;28;20025;-74
2022/06/01 11:29:07;;;;;;;7.18;6.47;;;;;;;;;;5014775;28;20030;-76
2022/06/01 11:31:33;;;;;;;8.15;6.93;;;;;;;;;;5006889;28;20029;-74
2022/06/01 11:34:01;;;;;;;7.82;6.80;;;;;;;;;;5003240;28;20030;-77
2022/06/01 11:36:27;;;;;;;7.75;6.95;;;;;;;;;;5008257;28;20029;-77
2022/06/01 11:39:04;;;;;;;7.63;6.72;;;;;;;;;;5000113;28;20022;-72
2022/06/01 11:41:32;;;;;;;8.27;7.35;;;;;;;;;;5004047;28;20040;-75
2022/06/01 11:43:59;;;;;;;11.43;7.28;;;;;;;;;;5006499;28;20023;-77
2022/06/01 11:46:35;;;;;;;10.13;8.13;;;;;;;;;;5009368;28;20081;-75
2022/06/01 11:49:23;;;;;;;8.95;7.35;;;;;;;;;;5006919;28;20108;-75
2022/06/01 11:51:49;;;;;;;9.50;6.80;;;;;;;;;;5001369;28;20069;-73
2022/06/01 11:54:34;;;;;;;9.27;7.10;;;;;;;;;;5008603;28;20025;-72
2022/06/01 11:57:01;;;;;;;9.25;6.32;;;;;;;;;;5011783;28;20030;-73
2022/06/01 11:59:45;;;;;;;9.52;7.45;;;;;;;;;;5011376;28;20017;-73
2022/06/01 12:02:18;;;;;;;9.90;7.88;;;;;;;;;;5004230;28;20032;-73
2022/06/01 12:04:54;;;;;;;10.73;7.50;;;;;;;;;;5013288;28;20052;-76
2022/06/01 12:07:34;;;;;;;9.05;7.30;;;;;;;;;;5008917;28;20587;-75
2022/06/01 12:10:02;;;;;;;11.57;8.43;;;;;;;;;;5009120;28;20229;-75
2022/06/01 12:12:36;;;;;;;9.05;7.30;;;;;;;;;;5002865;28;20456;-74
2022/06/01 12:15:04;;;;;;;7.47;6.22;;;;;;;;;;5008009;28;20076;-75
2022/06/01 12:17:31;;;;;;;6.25;5.53;;;;;;;;;;5005254;28;20017;-72
2022/06/01 12:20:11;;;;;;;5.35;4.85;;;;;;;;;;5012575;28;20052;-72
2022/06/01 12:28:34;;;;;;;6.35;4.28;;;;;;;;;;5005906;28;20091;-75
2022/06/01 12:31:28;;;;;;;4.68;3.55;;;;;;;;;;5012105;28;20033;-75
2022/06/01 12:33:59;;;;;;;3.40;3.10;;;;;;;;;;4985654;28;20045;-74
2022/06/01 12:36:25;;;;;;;3.45;3.17;;;;;;;;;;5011022;28;20028;-75
2022/06/01 12:38:51;;;;;;;3.85;3.55;;;;;;;;;;5003520;28;20032;-72
2022/06/01 12:41:21;;;;;;;3.80;3.25;;;;;;;;;;5003956;28;20546;-73
2022/06/01 12:43:49;;;;;;;3.45;3.15;;;;;;;;;;4996595;28;20400;-70
2022/06/01 12:46:18;;;;;;;2.50;2.30;;;;;;;;;;4997199;28;20105;-70
2022/06/01 12:48:44;;;;;;;2.78;2.00;;;;;;;;;;5005665;28;20255;-72
2022/06/01 12:51:09;;;;;;;3.10;1.98;;;;;;;;;;5011283;28;20021;-71
2022/06/01 12:53:42;;;;;;;3.53;1.52;;;;;;;;;;5006700;28;20403;-72
2022/06/01 12:56:09;;;;;;;1.33;1.10;;;;;;;;;;5010259;28;20049;-70
2022/06/01 12:58:35;;;;;;;2.28;1.38;;;;;;;;;;5006238;28;20018;-70
2022/06/01 13:01:01;;;;;;;1.30;1.20;;;;;;;;;;5009507;28;20029;-69
2022/06/01 13:03:32;;;;;;;2.38;1.35;;;;;;;;;;5005962;28;20063;-75
2022/06/01 13:05:59;;;;;;;2.17;1.17;;;;;;;;;;5014733;28;20484;-77
2022/06/01 13:08:29;;;;;;;1.70;1.10;;;;;;;;;;5000910;28;20047;-77
2022/06/01 13:10:54;;;;;;;1.15;0.98;;;;;;;;;;5004656;28;20030;-71
2022/06/01 13:13:24;;;;;;;1.10;1.00;;;;;;;;;;5003104;28;20049;-76
2022/06/01 13:15:55;;;;;;;1.77;1.50;;;;;;;;;;5004609;28;20104;-72
2022/06/01 13:18:26;;;;;;;1.55;1.38;;;;;;;;;;5009892;28;20558;-77
2022/06/01 13:20:56;;;;;;;1.98;1.60;;;;;;;;;;5000764;28;20049;-70
2022/06/01 13:23:21;;;;;;;2.15;1.88;;;;;;;;;;4988558;28;20369;-73
2022/06/01 13:25:48;;;;;;;1.55;1.42;;;;;;;;;;5008639;28;20092;-72
2022/06/01 13:28:13;;;;;;;1.30;1.20;;;;;;;;;;5013026;28;20026;-69
2022/06/01 13:30:39;;;;;;;1.13;1.13;;;;;;;;;;5002191;28;20025;-69
2022/06/01 13:33:15;;;;;;;1.65;1.30;;;;;;;;;;5013184;28;20017;-70
2022/06/01 13:35:44;;;;;;;2.80;1.40;;;;;;;;;;5008748;28;20164;-76
2022/06/01 13:38:17;;;;;;;2.38;1.10;;;;;;;;;;5006422;28;20430;-71
2022/06/01 13:40:43;;;;;;;;;;;;;;;;;;5003800;28;20472;-71
2022/06/01 13:43:11;;;;;;;1.33;1.23;;;;;;;;;;4994720;28;20303;-70
2022/06/01 13:45:39;;;;;;;1.83;1.10;;;;;;;;;;5000657;28;20120;-71
2022/06/01 13:48:05;;;;;;;1.83;1.20;;;;;;;;;;5005873;28;20025;-77
2022/06/01 13:50:37;;;;;;;1.85;1.10;;;;;;;;;;5001783;28;20060;-79
2022/06/01 13:53:06;;;;;;;1.40;1.17;;;;;;;;;;5008405;28;20029;-75
2022/06/01 13:55:32;;;;;;;1.42;1.33;;;;;;;;;;5009050;28;20171;-74
2022/06/01 13:58:07;;;;;;;1.75;1.50;;;;;;;;;;4988208;28;20022;-73
2022/06/01 14:00:35;;;;;;;2.08;1.30;;;;;;;;;;5009991;28;20578;-71
2022/06/01 14:03:06;;;;;;;1.00;1.00;;;;;;;;;;5018708;28;20030;-72
2022/06/01 14:05:49;;;;;;;1.60;0.90;;;;;;;;;;5004287;28;20468;-72
2022/06/01 14:08:14;;;;;;;3.22;0.90;;;;;;;;;;5006861;28;20022;-71
2022/06/01 14:10:47;;;;;;;1.20;1.10;;;;;;;;;;5009581;28;20079;-71
2022/06/01 14:13:14;;;;;;;2.28;2.03;;;;;;;;;;5001280;28;20034;-70
2022/06/01 14:15:39;;;;;;;1.38;1.20;;;;;;;;;;5000483;28;20112;-73
2022/06/01 14:18:06;;;;;;;1.23;1.05;;;;;;;;;;5014191;28;20044;-74
2022/06/01 14:20:31;;;;;;;1.17;1.00;;;;;;;;;;5003947;28;20508;-74
2022/06/01 14:22:56;;;;;;;1.80;1.10;;;;;;;;;;5010261;28;20029;-79
2022/06/01 14:30:49;;;;;;;2.20;1.80;;;;;;;;;;5004278;28;20072;-74
2022/06/01 14:33:14;;;;;;;1.73;1.60;;;;;;;;;;5010333;28;20022;-71
2022/06/01 14:35:39;;;;;;;1.43;1.33;;;;;;;;;;4997752;28;20417;-72
2022/06/01 14:38:04;;;;;;;1.80;1.23;;;;;;;;;;5001928;28;20022;-72
2022/06/01 14:40:29;;;;;;;1.25;1.15;;;;;;;;;;5005419;28;20108;-71
2022/06/01 14:42:56;;;;;;;2.10;1.27;;;;;;;;;;4999577;28;20033;-70
2022/06/01 14:45:21;;;;;;;1.40;1.30;;;;;;;;;;5008140;28;20318;-71
2022/06/01 14:47:46;;;;;;;2.80;1.23;;;;;;;;;;5002597;28;20109;-75
2022/06/01 14:50:12;;;;;;;1.23;1.13;;;;;;;;;;5005421;28;20487;-74
2022/06/01 14:52:38;;;;;;;1.17;0.97;;;;;;;;;;5009783;28;20137;-72
2022/06/01 14:55:04;;;;;;;1.45;1.00;;;;;;;;;;5004814;28;20038;-71
2022/06/01 14:57:29;;;;;;;2.28;1.25;;;;;;;;;;5004843;28;20028;-70
2022/06/01 14:59:54;;;;;;;2.20;1.42;;;;;;;;;;5013166;28;20393;-69
2022/06/01 15:02:20;;;;;;;2.97;1.60;;;;;;;;;;5005742;28;20038;-73
2022/06/01 15:04:47;;;;;;;2.20;2.00;;;;;;;;;;5008574;28;20014;-73
2022/06/01 15:07:12;;;;;;;3.65;2.75;;;;;;;;;;5010154;28;20030;-73
2022/06/01 15:09:38;;;;;;;3.90;3.50;;;;;;;;;;5017726;28;20021;-70
2022/06/01 15:12:07;;;;;;;8.13;7.32;;;;;;;;;;5006171;28;20022;-73